sensor_id;sensor_type;location;lat;lon;timestamp;pressure;altitude;pressure_sealevel;temperature;humidity
57232;BME280;43488;46.934;8.276;2023-04-29T00:01:30;96427.59;;;13.86;100.00
57232;BME280;43488;46.934;8.276;2023-04-29T00:03:58;96417.81;;;13.86;100.00
57232;BME280;43488;46.934;8.276;2023-04-29T00:06:25;96394.81;;;13.87;100.00
57232;BME280;43488;46.934;8.276;2023-04-29T00:08:52;96392.41;;;13.85;100.00
57232;BME280;43488;46.934;8.276;2023-04-29T00:11:20;96393.91;;;13.81;100.00
57232;BME280;43488;46.934;8.276;2023-04-29T00:13:47;96396.19;;;13.78;100.00
57232;BME280;43488;46.934;8.276;2023-04-29T00:16:14;96401.38;;;13.73;100.00
57232;BME280;43488;46.934;8.276;2023-04-29T00:18:41;96397.13;;;13.72;100.00
57232;BME280;43488;46.934;8.276;2023-04-29T00:21:09;96391.59;;;13.73;100.00
57232;BME280;43488;46.934;8.276;2023-04-29T00:23:37;96396.09;;;13.73;100.00
57232;BME280;43488;46.934;8.276;2023-04-29T00:26:05;96385.69;;;13.71;100.00
57232;BME280;43488;46.934;8.276;2023-04-29T00:28:32;96396.09;;;13.73;100.00
57232;BME280;43488;46.934;8.276;2023-04-29T00:30:59;96395.28;;;13.72;100.00
57232;BME280;43488;46.934;8.276;2023-04-29T00:33:27;96396.09;;;13.73;100.00
57232;BME280;43488;46.934;8.276;2023-04-29T00:35:54;96387.78;;;13.69;100.00
57232;BME280;43488;46.934;8.276;2023-04-29T00:38:22;96387.44;;;13.65;100.00
57232;BME280;43488;46.934;8.276;2023-04-29T00:40:50;96387.06;;;13.62;100.00
57232;BME280;43488;46.934;8.276;2023-04-29T00:43:17;96383.06;;;13.59;100.00
57232;BME280;43488;46.934;8.276;2023-04-29T00:45:44;96383.06;;;13.59;100.00
57232;BME280;43488;46.934;8.276;2023-04-29T00:48:13;96376.97;;;13.59;100.00
57232;BME280;43488;46.934;8.276;2023-04-29T00:50:43;96368.13;;;13.53;100.00
57232;BME280;43488;46.934;8.276;2023-04-29T00:53:10;96368.00;;;13.60;100.00
57232;BME280;43488;46.934;8.276;2023-04-29T00:55:40;96366.38;;;13.59;100.00
57232;BME280;43488;46.934;8.276;2023-04-29T00:58:10;96362.72;;;13.60;100.00
57232;BME280;43488;46.934;8.276;2023-04-29T01:00:38;96378.00;;;13.58;100.00
57232;BME280;43488;46.934;8.276;2023-04-29T01:03:08;96372.47;;;13.59;100.00
57232;BME280;43488;46.934;8.276;2023-04-29T01:05:35;96374.69;;;13.62;100.00
57232;BME280;43488;46.934;8.276;2023-04-29T01:10:52;96380.19;;;13.61;100.00
57232;BME280;43488;46.934;8.276;2023-04-29T01:13:32;96382.63;;;13.62;100.00
57232;BME280;43488;46.934;8.276;2023-04-29T01:16:03;96380.78;;;13.63;100.00
57232;BME280;43488;46.934;8.276;2023-04-29T01:18:40;96382.03;;;13.60;100.00
57232;BME280;43488;46.934;8.276;2023-04-29T01:21:07;96383.28;;;13.58;100.00
57232;BME280;43488;46.934;8.276;2023-04-29T01:23:35;96383.75;;;13.55;100.00
57232;BME280;43488;46.934;8.276;2023-04-29T01:26:03;96385.59;;;13.54;100.00
57232;BME280;43488;46.934;8.276;2023-04-29T01:31:50;96382.97;;;13.54;100.00
57232;BME280;43488;46.934;8.276;2023-04-29T01:35:19;96373.41;;;13.53;100.00
57232;BME280;43488;46.934;8.276;2023-04-29T01:41:26;96353.41;;;13.46;100.00
57232;BME280;43488;46.934;8.276;2023-04-29T01:43:58;96359.59;;;13.40;100.00
57232;BME280;43488;46.934;8.276;2023-04-29T01:46:29;96373.63;;;13.40;100.00
57232;BME280;43488;46.934;8.276;2023-04-29T01:48:58;96373.63;;;13.40;100.00
57232;BME280;43488;46.934;8.276;2023-04-29T01:51:26;96368.31;;;13.40;100.00
57232;BME280;43488;46.934;8.276;2023-04-29T01:53:55;96362.25;;;13.40;100.00
57232;BME280;43488;46.934;8.276;2023-04-29T01:56:23;96360.28;;;13.35;100.00
57232;BME280;43488;46.934;8.276;2023-04-29T01:58:51;96372.47;;;13.36;100.00
57232;BME280;43488;46.934;8.276;2023-04-29T02:01:18;96380.97;;;13.38;100.00
57232;BME280;43488;46.934;8.276;2023-04-29T02:03:45;96372.81;;;13.40;100.00
57232;BME280;43488;46.934;8.276;2023-04-29T02:06:13;96370.41;;;13.38;100.00
57232;BME280;43488;46.934;8.276;2023-04-29T02:08:41;96358.22;;;13.37;100.00
57232;BME280;43488;46.934;8.276;2023-04-29T02:11:08;96349.72;;;13.35;100.00
57232;BME280;43488;46.934;8.276;2023-04-29T02:13:35;96351.75;;;13.33;100.00
57232;BME280;43488;46.934;8.276;2023-04-29T02:16:11;96357.50;;;13.30;100.00
57232;BME280;43488;46.934;8.276;2023-04-29T02:18:38;96357.03;;;13.33;100.00
57232;BME280;43488;46.934;8.276;2023-04-29T02:21:07;96355.81;;;13.35;100.00
57232;BME280;43488;46.934;8.276;2023-04-29T02:23:35;96351.31;;;13.36;100.00
57232;BME280;43488;46.934;8.276;2023-04-29T02:26:03;96355.00;;;13.35;100.00
57232;BME280;43488;46.934;8.276;2023-04-29T02:28:35;96346.03;;;13.36;100.00
57232;BME280;43488;46.934;8.276;2023-04-29T02:31:03;96341.19;;;13.33;100.00
57232;BME280;43488;46.934;8.276;2023-04-29T02:33:32;96344.44;;;13.35;100.00
57232;BME280;43488;46.934;8.276;2023-04-29T02:36:01;96348.88;;;13.34;100.00
57232;BME280;43488;46.934;8.276;2023-04-29T02:38:29;96352.34;;;13.35;100.00
57232;BME280;43488;46.934;8.276;2023-04-29T02:40:56;96355.00;;;13.35;100.00
57232;BME280;43488;46.934;8.276;2023-04-29T02:43:24;96356.81;;;13.34;100.00
57232;BME280;43488;46.934;8.276;2023-04-29T02:45:52;96360.63;;;13.27;100.00
57232;BME280;43488;46.934;8.276;2023-04-29T02:48:20;96372.81;;;13.28;100.00
57232;BME280;43488;46.934;8.276;2023-04-29T02:50:47;96374.41;;;13.29;100.00
57232;BME280;43488;46.934;8.276;2023-04-29T02:53:15;96377.06;;;13.29;100.00
57232;BME280;43488;46.934;8.276;2023-04-29T02:55:42;96362.00;;;13.29;100.00
57232;BME280;43488;46.934;8.276;2023-04-29T02:58:10;96360.38;;;13.28;100.00
57232;BME280;43488;46.934;8.276;2023-04-29T03:00:39;96359.13;;;13.31;100.00
57232;BME280;43488;46.934;8.276;2023-04-29T03:03:06;96367.50;;;13.28;100.00
57232;BME280;43488;46.934;8.276;2023-04-29T03:05:33;96377.94;;;13.23;100.00
57232;BME280;43488;46.934;8.276;2023-04-29T03:08:01;96370.69;;;13.18;100.00
57232;BME280;43488;46.934;8.276;2023-04-29T03:10:31;96378.41;;;13.20;100.00
57232;BME280;43488;46.934;8.276;2023-04-29T03:12:58;96378.41;;;13.20;100.00
57232;BME280;43488;46.934;8.276;2023-04-29T03:15:25;96372.09;;;13.21;100.00
57232;BME280;43488;46.934;8.276;2023-04-29T03:17:53;96375.31;;;13.23;100.00
57232;BME280;43488;46.934;8.276;2023-04-29T03:20:20;96373.03;;;13.26;100.00
57232;BME280;43488;46.934;8.276;2023-04-29T03:22:48;96363.13;;;13.22;100.00
57232;BME280;43488;46.934;8.276;2023-04-29T03:25:15;96359.44;;;13.23;100.00
57232;BME280;43488;46.934;8.276;2023-04-29T03:27:43;96358.06;;;13.20;100.00
57232;BME280;43488;46.934;8.276;2023-04-29T03:30:10;96353.81;;;13.19;100.00
57232;BME280;43488;46.934;8.276;2023-04-29T03:32:38;96336.13;;;13.20;100.00
57232;BME280;43488;46.934;8.276;2023-04-29T03:35:05;96352.97;;;13.19;100.00
57232;BME280;43488;46.934;8.276;2023-04-29T03:37:33;96353.59;;;13.21;100.00
57232;BME280;43488;46.934;8.276;2023-04-29T03:40:00;96354.38;;;13.21;100.00
57232;BME280;43488;46.934;8.276;2023-04-29T03:42:27;96359.69;;;13.21;100.00
57232;BME280;43488;46.934;8.276;2023-04-29T03:44:55;96345.50;;;13.16;100.00
57232;BME280;43488;46.934;8.276;2023-04-29T03:47:22;96341.00;;;13.16;100.00
57232;BME280;43488;46.934;8.276;2023-04-29T03:49:49;96342.66;;;13.17;100.00
57232;BME280;43488;46.934;8.276;2023-04-29T03:52:17;96341.00;;;13.16;100.00
57232;BME280;43488;46.934;8.276;2023-04-29T03:54:44;96352.28;;;13.12;100.00
57232;BME280;43488;46.934;8.276;2023-04-29T03:57:12;96364.53;;;13.06;100.00
57232;BME280;43488;46.934;8.276;2023-04-29T03:59:39;96365.00;;;13.03;100.00
57232;BME280;43488;46.934;8.276;2023-04-29T04:02:06;96354.44;;;13.03;100.00
57232;BME280;43488;46.934;8.276;2023-04-29T04:04:34;96352.25;;;13.00;100.00
57232;BME280;43488;46.934;8.276;2023-04-29T04:07:01;96349.81;;;12.98;100.00
57232;BME280;43488;46.934;8.276;2023-04-29T04:09:29;96351.44;;;12.99;100.00
57232;BME280;43488;46.934;8.276;2023-04-29T04:11:57;96356.38;;;12.96;100.00
57232;BME280;43488;46.934;8.276;2023-04-29T04:14:24;96351.88;;;12.96;100.00
57232;BME280;43488;46.934;8.276;2023-04-29T04:16:52;96358.19;;;12.95;100.00
57232;BME280;43488;46.934;8.276;2023-04-29T04:19:19;96350.03;;;12.97;100.00
57232;BME280;43488;46.934;8.276;2023-04-29T04:21:46;96343.53;;;12.99;100.00
57232;BME280;43488;46.934;8.276;2023-04-29T04:24:14;96346.75;;;13.01;100.00
57232;BME280;43488;46.934;8.276;2023-04-29T04:26:41;96334.34;;;13.02;100.00
57232;BME280;43488;46.934;8.276;2023-04-29T04:29:09;96344.53;;;12.98;100.00
57232;BME280;43488;46.934;8.276;2023-04-29T04:31:37;96337.63;;;12.97;100.00
57232;BME280;43488;46.934;8.276;2023-04-29T04:34:04;96343.53;;;12.99;100.00
57232;BME280;43488;46.934;8.276;2023-04-29T04:36:31;96344.19;;;12.95;100.00
57232;BME280;43488;46.934;8.276;2023-04-29T04:38:58;96343.84;;;12.91;100.00
57232;BME280;43488;46.934;8.276;2023-04-29T04:41:26;96349.25;;;12.96;100.00
57232;BME280;43488;46.934;8.276;2023-04-29T04:43:53;96346.59;;;12.96;100.00
57232;BME280;43488;46.934;8.276;2023-04-29T04:46:20;96353.94;;;12.94;100.00
57232;BME280;43488;46.934;8.276;2023-04-29T04:48:47;96345.44;;;12.92;100.00
57232;BME280;43488;46.934;8.276;2023-04-29T04:51:16;96353.38;;;12.92;100.00
57232;BME280;43488;46.934;8.276;2023-04-29T04:53:43;96348.66;;;12.94;100.00
57232;BME280;43488;46.934;8.276;2023-04-29T04:56:11;96359.56;;;12.98;100.00
57232;BME280;43488;46.934;8.276;2023-04-29T04:58:38;96362.81;;;13.00;100.00
57232;BME280;43488;46.934;8.276;2023-04-29T05:01:05;96362.59;;;13.01;100.00
57232;BME280;43488;46.934;8.276;2023-04-29T05:03:33;96369.72;;;13.01;100.00
57232;BME280;43488;46.934;8.276;2023-04-29T05:06:01;96365.81;;;13.03;100.00
57232;BME280;43488;46.934;8.276;2023-04-29T05:08:29;96361.31;;;13.04;100.00
57232;BME280;43488;46.934;8.276;2023-04-29T05:10:56;96370.44;;;13.08;100.00
57232;BME280;43488;46.934;8.276;2023-04-29T05:13:24;96373.06;;;13.08;100.00
57232;BME280;43488;46.934;8.276;2023-04-29T05:15:52;96373.19;;;13.13;100.00
57232;BME280;43488;46.934;8.276;2023-04-29T05:18:20;96371.13;;;13.15;100.00
57232;BME280;43488;46.934;8.276;2023-04-29T05:20:47;96373.31;;;13.18;100.00
57232;BME280;43488;46.934;8.276;2023-04-29T05:23:15;96370.47;;;13.20;100.00
57232;BME280;43488;46.934;8.276;2023-04-29T05:25:42;96379.78;;;13.22;100.00
57232;BME280;43488;46.934;8.276;2023-04-29T05:28:10;96384.41;;;13.27;100.00
57232;BME280;43488;46.934;8.276;2023-04-29T05:30:38;96386.03;;;13.28;100.00
57232;BME280;43488;46.934;8.276;2023-04-29T05:33:05;96384.75;;;13.30;100.00
57232;BME280;43488;46.934;8.276;2023-04-29T05:35:32;96384.53;;;13.32;100.00
57232;BME280;43488;46.934;8.276;2023-04-29T05:37:59;96385.09;;;13.34;100.00
57232;BME280;43488;46.934;8.276;2023-04-29T05:40:27;96389.16;;;13.36;100.00
57232;BME280;43488;46.934;8.276;2023-04-29T05:42:56;96390.75;;;13.37;100.00
57232;BME280;43488;46.934;8.276;2023-04-29T05:45:24;96383.63;;;13.38;100.00
57232;BME280;43488;46.934;8.276;2023-04-29T05:47:51;96392.34;;;13.38;100.00
57232;BME280;43488;46.934;8.276;2023-04-29T05:50:18;96385.47;;;13.37;100.00
57232;BME280;43488;46.934;8.276;2023-04-29T05:52:46;96394.19;;;13.38;100.00
57232;BME280;43488;46.934;8.276;2023-04-29T05:55:13;96398.78;;;13.43;100.00
57232;BME280;43488;46.934;8.276;2023-04-29T05:57:40;96398.94;;;13.48;100.00
57232;BME280;43488;46.934;8.276;2023-04-29T06:00:08;96399.25;;;13.51;100.00
57232;BME280;43488;46.934;8.276;2023-04-29T06:02:35;96402.84;;;13.57;100.00
57232;BME280;43488;46.934;8.276;2023-04-29T06:05:04;96390.91;;;13.54;100.00
57232;BME280;43488;46.934;8.276;2023-04-29T06:07:32;96395.38;;;13.54;100.00
57232;BME280;43488;46.934;8.276;2023-04-29T06:09:59;96392.03;;;13.58;100.00
57232;BME280;43488;46.934;8.276;2023-04-29T06:12:27;96394.81;;;13.63;100.00
57232;BME280;43488;46.934;8.276;2023-04-29T06:14:54;96398.13;;;13.71;100.00
57232;BME280;43488;46.934;8.276;2023-04-29T06:17:22;96392.97;;;13.76;100.00
57232;BME280;43488;46.934;8.276;2023-04-29T06:19:50;96396.41;;;13.76;100.00
57232;BME280;43488;46.934;8.276;2023-04-29T06:22:18;96392.63;;;13.84;100.00
57232;BME280;43488;46.934;8.276;2023-04-29T06:24:45;96402.31;;;13.90;100.00
57232;BME280;43488;46.934;8.276;2023-04-29T06:27:13;96401.34;;;13.96;100.00
57232;BME280;43488;46.934;8.276;2023-04-29T06:29:41;96404.38;;;14.00;100.00
57232;BME280;43488;46.934;8.276;2023-04-29T06:32:08;96407.47;;;14.08;100.00
57232;BME280;43488;46.934;8.276;2023-04-29T06:34:36;96404.44;;;14.16;100.00
57232;BME280;43488;46.934;8.276;2023-04-29T06:37:05;96406.50;;;14.26;100.00
57232;BME280;43488;46.934;8.276;2023-04-29T06:39:32;96404.22;;;14.30;100.00
57232;BME280;43488;46.934;8.276;2023-04-29T06:42:00;96404.22;;;14.30;100.00
57232;BME280;43488;46.934;8.276;2023-04-29T06:44:28;96399.38;;;14.38;100.00
57232;BME280;43488;46.934;8.276;2023-04-29T06:46:56;96406.50;;;14.38;100.00
57232;BME280;43488;46.934;8.276;2023-04-29T06:49:23;96405.56;;;14.44;100.00
57232;BME280;43488;46.934;8.276;2023-04-29T06:51:51;96400.97;;;14.51;100.00
57232;BME280;43488;46.934;8.276;2023-04-29T06:54:19;96402.00;;;14.50;100.00
57232;BME280;43488;46.934;8.276;2023-04-29T06:56:47;96399.38;;;14.50;100.00
57232;BME280;43488;46.934;8.276;2023-04-29T06:59:15;96409.84;;;14.57;100.00
57232;BME280;43488;46.934;8.276;2023-04-29T07:01:44;96408.06;;;14.62;100.00
57232;BME280;43488;46.934;8.276;2023-04-29T07:04:12;96410.44;;;14.47;100.00
57232;BME280;43488;46.934;8.276;2023-04-29T07:06:39;96403.72;;;14.56;100.00
57232;BME280;43488;46.934;8.276;2023-04-29T07:09:07;96408.56;;;14.59;100.00
57232;BME280;43488;46.934;8.276;2023-04-29T07:11:35;96413.53;;;14.56;100.00
57232;BME280;43488;46.934;8.276;2023-04-29T07:14:03;96410.28;;;14.65;100.00
57232;BME280;43488;46.934;8.276;2023-04-29T07:16:30;96410.72;;;14.74;100.00
57232;BME280;43488;46.934;8.276;2023-04-29T07:18:59;96421.03;;;14.87;100.00
57232;BME280;43488;46.934;8.276;2023-04-29T07:21:26;96410.78;;;14.91;100.00
57232;BME280;43488;46.934;8.276;2023-04-29T07:23:54;96410.53;;;14.92;100.00
57232;BME280;43488;46.934;8.276;2023-04-29T07:26:21;96417.75;;;14.97;100.00
57232;BME280;43488;46.934;8.276;2023-04-29T07:28:49;96417.25;;;15.12;100.00
57232;BME280;43488;46.934;8.276;2023-04-29T07:31:17;96422.72;;;15.22;100.00
57232;BME280;43488;46.934;8.276;2023-04-29T07:33:44;96427.41;;;15.31;100.00
57232;BME280;43488;46.934;8.276;2023-04-29T07:36:16;96422.34;;;15.30;100.00
57232;BME280;43488;46.934;8.276;2023-04-29T07:38:44;96426.50;;;15.26;100.00
57232;BME280;43488;46.934;8.276;2023-04-29T07:41:13;96432.03;;;15.24;100.00
57232;BME280;43488;46.934;8.276;2023-04-29T07:43:41;96425.31;;;15.33;100.00
57232;BME280;43488;46.934;8.276;2023-04-29T07:46:08;96423.69;;;15.32;100.00
57232;BME280;43488;46.934;8.276;2023-04-29T07:48:37;96425.97;;;15.41;100.00
57232;BME280;43488;46.934;8.276;2023-04-29T07:51:05;96421.22;;;15.43;100.00
57232;BME280;43488;46.934;8.276;2023-04-29T07:53:33;96419.75;;;15.63;100.00
57232;BME280;43488;46.934;8.276;2023-04-29T07:56:05;96415.47;;;15.79;100.00
57232;BME280;43488;46.934;8.276;2023-04-29T07:58:33;96412.00;;;15.96;100.00
57232;BME280;43488;46.934;8.276;2023-04-29T08:01:09;96414.50;;;16.02;100.00
57232;BME280;43488;46.934;8.276;2023-04-29T08:03:38;96409.25;;;16.07;100.00
57232;BME280;43488;46.934;8.276;2023-04-29T08:06:06;96408.13;;;16.03;100.00
57232;BME280;43488;46.934;8.276;2023-04-29T08:08:33;96410.78;;;16.20;100.00
57232;BME280;43488;46.934;8.276;2023-04-29T08:11:01;96403.75;;;16.31;97.52
57232;BME280;43488;46.934;8.276;2023-04-29T08:13:29;96395.16;;;16.45;98.51
57232;BME280;43488;46.934;8.276;2023-04-29T08:15:58;96400.03;;;16.54;98.31
57232;BME280;43488;46.934;8.276;2023-04-29T08:18:25;96395.34;;;16.61;95.67
57232;BME280;43488;46.934;8.276;2023-04-29T08:20:55;96398.81;;;16.61;95.74
57232;BME280;43488;46.934;8.276;2023-04-29T08:23:22;96404.28;;;16.55;96.20
57232;BME280;43488;46.934;8.276;2023-04-29T08:25:50;96405.91;;;16.56;96.43
57232;BME280;43488;46.934;8.276;2023-04-29T08:28:18;96399.06;;;16.60;93.38
57232;BME280;43488;46.934;8.276;2023-04-29T08:30:46;96398.31;;;16.64;95.20
57232;BME280;43488;46.934;8.276;2023-04-29T08:33:13;96399.13;;;16.65;96.21
57232;BME280;43488;46.934;8.276;2023-04-29T08:35:41;96402.19;;;16.73;94.72
57232;BME280;43488;46.934;8.276;2023-04-29T08:38:09;96401.94;;;16.75;92.75
57232;BME280;43488;46.934;8.276;2023-04-29T08:40:42;96403.56;;;16.81;94.82
57232;BME280;43488;46.934;8.276;2023-04-29T08:43:10;96398.22;;;16.76;88.63
57232;BME280;43488;46.934;8.276;2023-04-29T08:45:38;96401.28;;;16.90;92.62
57232;BME280;43488;46.934;8.276;2023-04-29T08:48:06;96401.38;;;17.00;89.63
57232;BME280;43488;46.934;8.276;2023-04-29T08:50:40;96398.28;;;17.08;89.43
57232;BME280;43488;46.934;8.276;2023-04-29T08:53:13;96399.66;;;17.11;88.22
57232;BME280;43488;46.934;8.276;2023-04-29T08:55:47;96394.28;;;17.05;87.74
57232;BME280;43488;46.934;8.276;2023-04-29T08:58:15;96394.09;;;17.17;87.27
57232;BME280;43488;46.934;8.276;2023-04-29T09:00:43;96391.25;;;17.24;87.33
57232;BME280;43488;46.934;8.276;2023-04-29T09:03:29;96390.25;;;17.30;85.21
57232;BME280;43488;46.934;8.276;2023-04-29T09:06:00;96385.22;;;17.33;86.49
57232;BME280;43488;46.934;8.276;2023-04-29T09:08:28;96381.34;;;17.46;87.81
57232;BME280;43488;46.934;8.276;2023-04-29T09:10:56;96388.50;;;17.46;86.93
57232;BME280;43488;46.934;8.276;2023-04-29T09:13:29;96387.78;;;17.50;84.38
57232;BME280;43488;46.934;8.276;2023-04-29T09:15:57;96390.97;;;17.52;86.64
57232;BME280;43488;46.934;8.276;2023-04-29T09:18:48;96381.94;;;17.53;83.20
57232;BME280;43488;46.934;8.276;2023-04-29T09:21:28;96378.06;;;17.66;82.91
57232;BME280;43488;46.934;8.276;2023-04-29T09:23:58;96382.09;;;17.74;80.76
57232;BME280;43488;46.934;8.276;2023-04-29T09:26:27;96378.97;;;17.82;78.82
57232;BME280;43488;46.934;8.276;2023-04-29T09:29:08;96391.84;;;17.95;82.50
57232;BME280;43488;46.934;8.276;2023-04-29T09:31:40;96381.75;;;17.97;84.34
57232;BME280;43488;46.934;8.276;2023-04-29T09:34:08;96377.00;;;18.04;82.78
57232;BME280;43488;46.934;8.276;2023-04-29T09:36:45;96377.59;;;18.11;83.78
57232;BME280;43488;46.934;8.276;2023-04-29T09:39:19;96373.59;;;18.19;84.48
57232;BME280;43488;46.934;8.276;2023-04-29T09:44:30;96372.78;;;18.13;79.33
57232;BME280;43488;46.934;8.276;2023-04-29T09:47:07;96376.53;;;18.17;78.08
57232;BME280;43488;46.934;8.276;2023-04-29T09:49:37;96384.63;;;18.33;73.34
57232;BME280;43488;46.934;8.276;2023-04-29T09:52:11;96372.19;;;18.54;76.12
57232;BME280;43488;46.934;8.276;2023-04-29T09:54:39;96367.94;;;18.58;76.10
57232;BME280;43488;46.934;8.276;2023-04-29T09:57:08;96367.41;;;18.61;72.93
57232;BME280;43488;46.934;8.276;2023-04-29T09:59:38;96367.75;;;18.80;75.65
57232;BME280;43488;46.934;8.276;2023-04-29T10:02:17;96361.34;;;18.70;75.45
57232;BME280;43488;46.934;8.276;2023-04-29T10:04:48;96368.44;;;18.55;76.17
57232;BME280;43488;46.934;8.276;2023-04-29T10:07:20;96356.81;;;18.66;79.95
57232;BME280;43488;46.934;8.276;2023-04-29T10:09:47;96361.53;;;18.59;75.96
57232;BME280;43488;46.934;8.276;2023-04-29T10:12:18;96349.59;;;18.71;78.05
57232;BME280;43488;46.934;8.276;2023-04-29T10:15:02;96351.00;;;18.89;77.67
57232;BME280;43488;46.934;8.276;2023-04-29T10:17:51;96344.91;;;19.14;77.27
57232;BME280;43488;46.934;8.276;2023-04-29T10:20:25;96336.63;;;19.16;74.58
57232;BME280;43488;46.934;8.276;2023-04-29T10:22:54;96332.63;;;19.33;74.22
57232;BME280;43488;46.934;8.276;2023-04-29T10:25:25;96335.84;;;19.41;74.43
57232;BME280;43488;46.934;8.276;2023-04-29T10:27:54;96327.81;;;19.36;76.43
57232;BME280;43488;46.934;8.276;2023-04-29T10:30:22;96333.19;;;19.20;75.34
57232;BME280;43488;46.934;8.276;2023-04-29T10:32:50;96335.03;;;19.15;75.33
57232;BME280;43488;46.934;8.276;2023-04-29T10:35:20;96329.97;;;19.39;75.72
57232;BME280;43488;46.934;8.276;2023-04-29T10:37:50;96322.75;;;19.49;76.33
57232;BME280;43488;46.934;8.276;2023-04-29T10:40:28;96325.72;;;19.63;75.31
57232;BME280;43488;46.934;8.276;2023-04-29T10:42:57;96331.56;;;19.80;74.21
57232;BME280;43488;46.934;8.276;2023-04-29T10:45:27;96325.09;;;20.07;75.26
57232;BME280;43488;46.934;8.276;2023-04-29T10:50:38;96319.56;;;19.78;68.44
57232;BME280;43488;46.934;8.276;2023-04-29T10:53:08;96318.47;;;19.79;71.45
57232;BME280;43488;46.934;8.276;2023-04-29T10:55:37;96325.19;;;19.66;71.82
57232;BME280;43488;46.934;8.276;2023-04-29T11:01:14;96311.28;;;19.84;71.07
57232;BME280;43488;46.934;8.276;2023-04-29T11:06:38;96320.16;;;20.44;70.04
57232;BME280;43488;46.934;8.276;2023-04-29T11:09:12;96312.75;;;20.81;70.43
57232;BME280;43488;46.934;8.276;2023-04-29T11:11:48;96301.56;;;20.79;67.22
57232;BME280;43488;46.934;8.276;2023-04-29T11:14:24;96299.38;;;20.86;66.78
57232;BME280;43488;46.934;8.276;2023-04-29T11:16:56;96304.31;;;21.02;67.61
57232;BME280;43488;46.934;8.276;2023-04-29T11:19:39;96308.00;;;21.12;64.48
57232;BME280;43488;46.934;8.276;2023-04-29T11:22:14;96302.66;;;21.12;65.21
57232;BME280;43488;46.934;8.276;2023-04-29T11:25:03;96306.91;;;21.18;63.47
57232;BME280;43488;46.934;8.276;2023-04-29T11:27:38;96298.44;;;21.06;65.45
57232;BME280;43488;46.934;8.276;2023-04-29T11:30:07;96296.47;;;20.77;62.07
57232;BME280;43488;46.934;8.276;2023-04-29T11:32:37;96295.03;;;20.45;66.27
57232;BME280;43488;46.934;8.276;2023-04-29T11:35:14;96292.66;;;20.29;66.96
57232;BME280;43488;46.934;8.276;2023-04-29T11:37:43;96299.41;;;20.11;68.61
57232;BME280;43488;46.934;8.276;2023-04-29T11:40:11;96294.34;;;20.09;70.58
57232;BME280;43488;46.934;8.276;2023-04-29T11:42:47;96297.91;;;19.74;69.94
57232;BME280;43488;46.934;8.276;2023-04-29T11:45:16;96303.75;;;19.92;68.83
57232;BME280;43488;46.934;8.276;2023-04-29T11:47:46;96300.03;;;19.82;69.20
57232;BME280;43488;46.934;8.276;2023-04-29T11:50:15;96297.91;;;19.84;66.72
57232;BME280;43488;46.934;8.276;2023-04-29T11:52:43;96293.38;;;19.80;68.82
57232;BME280;43488;46.934;8.276;2023-04-29T11:55:12;96288.56;;;19.77;70.20
57232;BME280;43488;46.934;8.276;2023-04-29T11:57:40;96292.03;;;19.72;68.49
57232;BME280;43488;46.934;8.276;2023-04-29T12:00:12;96289.91;;;19.64;69.61
57232;BME280;43488;46.934;8.276;2023-04-29T12:02:43;96296.59;;;19.72;73.33
57232;BME280;43488;46.934;8.276;2023-04-29T12:05:13;96294.19;;;19.50;70.52
57232;BME280;43488;46.934;8.276;2023-04-29T12:07:43;96301.41;;;19.44;72.14
57232;BME280;43488;46.934;8.276;2023-04-29T12:10:11;96308.34;;;19.40;71.92
57232;BME280;43488;46.934;8.276;2023-04-29T12:12:38;96320.63;;;19.21;75.35
57232;BME280;43488;46.934;8.276;2023-04-29T12:15:10;96316.06;;;19.16;76.50
57232;BME280;43488;46.934;8.276;2023-04-29T12:17:38;96322.47;;;19.15;77.71
57232;BME280;43488;46.934;8.276;2023-04-29T12:20:06;96325.16;;;19.05;79.12
57232;BME280;43488;46.934;8.276;2023-04-29T12:22:36;96325.16;;;19.15;80.15
57232;BME280;43488;46.934;8.276;2023-04-29T12:25:04;96321.69;;;19.30;82.86
57232;BME280;43488;46.934;8.276;2023-04-29T12:27:31;96321.66;;;19.55;83.33
57232;BME280;43488;46.934;8.276;2023-04-29T12:30:05;96328.38;;;19.78;82.72
57232;BME280;43488;46.934;8.276;2023-04-29T12:32:33;96321.69;;;19.81;83.71
57232;BME280;43488;46.934;8.276;2023-04-29T12:35:00;96317.38;;;19.95;83.96
57232;BME280;43488;46.934;8.276;2023-04-29T12:37:28;96312.56;;;19.97;77.58
57232;BME280;43488;46.934;8.276;2023-04-29T12:39:55;96317.59;;;20.14;81.28
57232;BME280;43488;46.934;8.276;2023-04-29T12:42:23;96309.31;;;20.15;84.54
57232;BME280;43488;46.934;8.276;2023-04-29T12:44:57;96312.88;;;19.75;84.94
57232;BME280;43488;46.934;8.276;2023-04-29T12:47:31;96307.53;;;19.75;83.57
57232;BME280;43488;46.934;8.276;2023-04-29T12:50:00;96295.81;;;19.66;84.83
57232;BME280;43488;46.934;8.276;2023-04-29T12:52:28;96307.53;;;19.55;81.97
57232;BME280;43488;46.934;8.276;2023-04-29T12:54:56;96300.59;;;19.54;78.93
57232;BME280;43488;46.934;8.276;2023-04-29T12:57:23;96301.13;;;19.56;76.66
57232;BME280;43488;46.934;8.276;2023-04-29T12:59:52;96300.91;;;19.57;77.92
57232;BME280;43488;46.934;8.276;2023-04-29T13:02:19;96297.16;;;19.58;76.19
57232;BME280;43488;46.934;8.276;2023-04-29T13:04:46;96290.19;;;19.68;75.58
57232;BME280;43488;46.934;8.276;2023-04-29T13:07:14;96296.31;;;19.78;72.72
57232;BME280;43488;46.934;8.276;2023-04-29T13:09:41;96291.75;;;19.89;71.61
57232;BME280;43488;46.934;8.276;2023-04-29T13:12:10;96280.13;;;20.24;67.24
57232;BME280;43488;46.934;8.276;2023-04-29T13:14:38;96275.75;;;20.54;68.37
57232;BME280;43488;46.934;8.276;2023-04-29T13:17:05;96272.41;;;20.77;69.65
57232;BME280;43488;46.934;8.276;2023-04-29T13:19:33;96259.28;;;21.15;67.94
57232;BME280;43488;46.934;8.276;2023-04-29T13:22:00;96266.66;;;21.33;63.62
57232;BME280;43488;46.934;8.276;2023-04-29T13:24:28;96260.63;;;21.46;67.10
57232;BME280;43488;46.934;8.276;2023-04-29T13:26:55;96265.94;;;21.80;57.29